Time;durP1;ratioP1;P1;durP2;ratioP2;P2;SDS_P1;SDS_P2;PMS_P1;PMS_P2;Temp;Humidity;BMP_temperature;BMP_pressure;BME280_temperature;BME280_humidity;BME280_pressure;Samples;Min_cycle;Max_cycle;Signal;HPM_P1;HPM_P2
2023/04/19 00:00:45;;;;;;;4.47;3.05;;;;;;;;;;5040425;28;20071;-50
2023/04/19 00:03:11;;;;;;;3.28;2.80;;;;;;;;;;5075573;28;20375;-51
2023/04/19 00:05:37;;;;;;;3.95;2.65;;;;;;;;;;5056911;28;20112;-51
2023/04/19 00:08:06;;;;;;;4.82;2.58;;;;;;;;;;5040452;28;20040;-51
2023/04/19 00:10:34;;;;;;;5.57;2.50;;;;;;;;;;5056793;28;20040;-50
2023/04/19 00:13:00;;;;;;;3.25;2.53;;;;;;;;;;5075556;28;20383;-51
2023/04/19 00:15:26;;;;;;;3.03;2.55;;;;;;;;;;5074915;28;20036;-51
2023/04/19 00:17:52;;;;;;;4.13;2.30;;;;;;;;;;5056857;28;20037;-51
2023/04/19 00:20:19;;;;;;;4.00;2.38;;;;;;;;;;5056667;28;20040;-51
2023/04/19 00:22:45;;;;;;;3.40;2.63;;;;;;;;;;5040280;28;20037;-51
2023/04/19 00:25:11;;;;;;;5.25;2.33;;;;;;;;;;5074998;28;20041;-50
2023/04/19 00:27:37;;;;;;;3.85;2.55;;;;;;;;;;5056323;28;20047;-51
2023/04/19 00:30:03;;;;;;;6.15;2.92;;;;;;;;;;5075216;28;20122;-50
2023/04/19 00:32:29;;;;;;;3.95;2.50;;;;;;;;;;5040054;28;20034;-50
2023/04/19 00:34:55;;;;;;;3.92;2.88;;;;;;;;;;5032774;28;20029;-50
2023/04/19 00:37:21;;;;;;;5.65;3.08;;;;;;;;;;5016265;28;20496;-51
2023/04/19 00:39:47;;;;;;;4.57;3.00;;;13.30;99.90;;;;;;5032734;28;20044;-50
2023/04/19 00:42:13;;;;;;;4.22;3.38;;;13.30;99.90;;;;;;5016169;28;20038;-50
2023/04/19 00:44:39;;;;;;;5.00;3.22;;;13.20;99.90;;;;;;5032471;28;20034;-50
2023/04/19 00:47:04;;;;;;;3.40;2.75;;;13.30;99.90;;;;;;5016021;28;20116;-51
2023/04/19 00:49:31;;;;;;;4.25;3.22;;;13.20;99.90;;;;;;5032246;28;20115;-50
2023/04/19 00:51:56;;;;;;;3.47;2.53;;;13.20;99.90;;;;;;5032597;28;20037;-50
2023/04/19 00:54:22;;;;;;;5.43;3.70;;;13.20;99.90;;;;;;5032542;28;20067;-50
2023/04/19 00:56:49;;;;;;;3.47;2.65;;;13.10;99.90;;;;;;5032360;28;20089;-50
2023/04/19 00:59:15;;;;;;;3.85;2.33;;;13.10;99.90;;;;;;4999460;28;20404;-50
2023/04/19 01:01:41;;;;;;;6.97;3.60;;;13.10;99.90;;;;;;5031989;28;20034;-50
2023/04/19 01:04:07;;;;;;;4.15;2.92;;;13.00;99.90;;;;;;5049800;28;20040;-50
2023/04/19 01:06:35;;;;;;;5.00;3.00;;;13.00;99.90;;;;;;5054433;28;20391;-50
2023/04/19 01:09:01;;;;;;;4.40;2.70;;;13.00;99.90;;;;;;5054584;28;20025;-50
2023/04/19 01:11:27;;;;;;;5.22;2.88;;;13.10;99.90;;;;;;5054432;28;20404;-51
2023/04/19 01:13:55;;;;;;;4.20;3.42;;;13.00;99.90;;;;;;5054158;28;20036;-50
2023/04/19 01:16:21;;;;;;;7.18;3.38;;;13.00;99.90;;;;;;5054153;28;20029;-50
2023/04/19 01:18:47;;;;;;;6.20;2.95;;;13.00;99.90;;;;;;5054435;28;20380;-50
2023/04/19 01:21:13;;;;;;;3.35;2.33;;;13.00;99.90;;;;;;5054063;28;20480;-50
2023/04/19 01:23:39;;;;;;;6.38;3.33;;;13.00;99.90;;;;;;5053794;28;20035;-50
2023/04/19 01:26:06;;;;;;;4.10;2.40;;;;;;;;;;5054271;28;20030;-50
2023/04/19 01:28:32;;;;;;;4.40;2.80;;;;;;;;;;5053947;28;20410;-50
2023/04/19 01:30:58;;;;;;;4.57;3.13;;;12.80;99.90;;;;;;5053902;28;20032;-50
2023/04/19 01:33:24;;;;;;;5.90;2.95;;;12.80;99.90;;;;;;5053709;28;20021;-50
2023/04/19 01:35:49;;;;;;;3.92;2.90;;;12.80;99.90;;;;;;5018750;28;20037;-50
2023/04/19 01:38:16;;;;;;;4.00;2.72;;;12.80;99.90;;;;;;5054029;28;20021;-50
2023/04/19 01:40:42;;;;;;;3.97;2.40;;;12.80;99.90;;;;;;5053562;28;20423;-50
2023/04/19 01:43:13;;;;;;;4.25;3.30;;;12.80;99.90;;;;;;5053531;28;20029;-50
2023/04/19 01:45:39;;;;;;;4.10;2.67;;;12.70;99.90;;;;;;5053867;28;20039;-50
2023/04/19 01:48:05;;;;;;;3.42;2.53;;;12.70;99.90;;;;;;5053240;28;20392;-50
2023/04/19 01:50:31;;;;;;;5.22;2.75;;;12.70;99.90;;;;;;5053171;28;20052;-50
2023/04/19 01:52:57;;;;;;;4.82;3.03;;;12.70;99.90;;;;;;5018452;28;20127;-50
2023/04/19 01:55:23;;;;;;;7.63;2.90;;;12.70;99.90;;;;;;5053488;28;20067;-50
2023/04/19 01:57:51;;;;;;;3.70;2.60;;;12.70;99.90;;;;;;5053342;28;20028;-50
2023/04/19 02:00:17;;;;;;;3.13;2.50;;;12.60;99.90;;;;;;5053467;28;20551;-51
2023/04/19 02:02:43;;;;;;;3.92;2.80;;;12.60;99.90;;;;;;5018461;28;20128;-50
2023/04/19 02:05:10;;;;;;;4.00;2.58;;;12.60;99.90;;;;;;5018570;28;20069;-50
2023/04/19 02:07:36;;;;;;;4.25;2.80;;;12.60;99.90;;;;;;5053348;28;20025;-50
2023/04/19 02:10:01;;;;;;;4.18;2.97;;;12.60;99.90;;;;;;5053545;28;20036;-50
2023/04/19 02:12:29;;;;;;;4.55;2.72;;;12.70;99.90;;;;;;5053242;28;20396;-50
2023/04/19 02:14:58;;;;;;;3.97;2.95;;;12.60;99.90;;;;;;5053228;28;20029;-50
2023/04/19 02:17:24;;;;;;;3.40;2.38;;;12.60;99.90;;;;;;5053162;28;20025;-50
2023/04/19 02:19:51;;;;;;;4.18;2.95;;;12.50;99.90;;;;;;5053382;28;20039;-50
2023/04/19 02:22:17;;;;;;;3.42;2.70;;;12.50;99.90;;;;;;5053330;28;20108;-50
2023/04/19 02:24:43;;;;;;;4.47;2.60;;;12.50;99.90;;;;;;5053047;28;20031;-50
2023/04/19 02:27:09;;;;;;;4.50;2.50;;;12.50;99.90;;;;;;5053104;28;20119;-51
2023/04/19 02:29:34;;;;;;;3.95;2.88;;;12.60;99.90;;;;;;5018296;28;20072;-51
2023/04/19 02:32:04;;;;;;;5.65;3.22;;;12.50;99.90;;;;;;5053322;28;20036;-50
2023/04/19 02:34:30;;;;;;;4.28;2.55;;;12.50;99.90;;;;;;5053029;28;20468;-50
2023/04/19 02:36:57;;;;;;;5.38;3.28;;;;;;;;;;5052540;28;20491;-50
2023/04/19 02:39:23;;;;;;;3.78;2.95;;;;;;;;;;5034458;28;20095;-51
2023/04/19 02:41:49;;;;;;;5.88;2.70;;;;;;;;;;5063947;28;20036;-51
2023/04/19 02:44:15;;;;;;;5.93;3.35;;;12.50;99.90;;;;;;5072768;28;20020;-50
2023/04/19 02:46:47;;;;;;;3.28;2.65;;;12.50;99.90;;;;;;5073105;28;20032;-50
2023/04/19 02:49:12;;;;;;;4.90;3.17;;;12.50;99.90;;;;;;5072684;28;20044;-50
2023/04/19 02:51:38;;;;;;;4.47;2.78;;;12.50;99.90;;;;;;5065614;28;20079;-50
2023/04/19 02:54:04;;;;;;;4.63;3.28;;;12.50;99.90;;;;;;5052447;28;20166;-50
2023/04/19 02:56:30;;;;;;;4.00;2.67;;;12.40;99.90;;;;;;5017929;28;20045;-50
2023/04/19 02:58:59;;;;;;;5.55;3.42;;;12.40;99.90;;;;;;5053325;28;20456;-51
2023/04/19 03:01:25;;;;;;;6.47;3.15;;;12.40;99.90;;;;;;5055750;28;20040;-50
2023/04/19 03:03:51;;;;;;;6.55;3.03;;;12.40;99.90;;;;;;5021798;28;20091;-50
2023/04/19 03:06:17;;;;;;;5.72;3.13;;;12.50;99.90;;;;;;5021755;28;20136;-50
2023/04/19 03:08:42;;;;;;;4.75;3.25;;;12.40;99.90;;;;;;5056786;28;20021;-50
2023/04/19 03:11:11;;;;;;;4.40;3.30;;;12.30;99.90;;;;;;4988909;28;20037;-50
2023/04/19 03:13:38;;;;;;;2.58;1.80;;;12.30;99.90;;;;;;5056484;28;20079;-50
2023/04/19 03:16:05;;;;;;;4.20;3.20;;;12.30;99.90;;;;;;5056556;28;20059;-50
2023/04/19 03:18:30;;;;;;;7.28;4.45;;;12.30;99.90;;;;;;5021604;28;20051;-50
2023/04/19 03:20:56;;;;;;;6.38;3.80;;;12.30;99.90;;;;;;5064533;28;20387;-51
2023/04/19 03:23:22;;;;;;;6.03;3.63;;;12.30;99.90;;;;;;5057612;28;21172;-50
2023/04/19 03:25:47;;;;;;;8.57;4.18;;;12.40;99.90;;;;;;5028356;28;20045;-50
2023/04/19 03:28:13;;;;;;;7.25;3.67;;;12.30;99.90;;;;;;5021255;28;20103;-50
2023/04/19 03:30:39;;;;;;;6.47;3.10;;;12.40;99.90;;;;;;5056274;28;20071;-50
2023/04/19 03:33:05;;;;;;;6.93;4.50;;;12.30;99.90;;;;;;5056131;28;20025;-50
2023/04/19 03:35:31;;;;;;;7.68;4.35;;;12.40;99.90;;;;;;5021326;28;20060;-50
2023/04/19 03:37:57;;;;;;;5.97;3.78;;;12.40;99.90;;;;;;5056053;28;20029;-50
2023/04/19 03:40:23;;;;;;;5.32;3.80;;;12.30;99.90;;;;;;5056076;28;20045;-50
2023/04/19 03:42:48;;;;;;;7.38;4.18;;;12.30;99.90;;;;;;5056108;28;20029;-50
2023/04/19 03:45:14;;;;;;;7.65;5.18;;;12.40;99.90;;;;;;5056305;28;20072;-50
2023/04/19 03:47:40;;;;;;;5.10;3.83;;;12.40;99.90;;;;;;5020989;28;20086;-50
2023/04/19 03:50:06;;;;;;;5.65;4.22;;;12.30;99.90;;;;;;5055852;28;20045;-50
2023/04/19 03:52:32;;;;;;;6.13;3.22;;;12.30;99.90;;;;;;5013888;28;20049;-50
2023/04/19 03:54:58;;;;;;;5.03;3.60;;;12.40;99.90;;;;;;5014393;28;20042;-50
2023/04/19 03:57:24;;;;;;;7.18;4.00;;;12.50;99.90;;;;;;5013946;28;20046;-50
2023/04/19 03:59:50;;;;;;;6.78;4.50;;;12.40;99.90;;;;;;5013844;28;20037;-50
2023/04/19 04:02:15;;;;;;;5.13;3.55;;;12.40;99.90;;;;;;5013720;28;20070;-50
2023/04/19 04:04:41;;;;;;;5.68;3.35;;;12.50;99.90;;;;;;5013723;28;20037;-50
2023/04/19 04:07:07;;;;;;;5.32;3.35;;;12.40;99.90;;;;;;5014100;28;20128;-50
2023/04/19 04:09:33;;;;;;;5.30;3.00;;;12.40;99.90;;;;;;4997385;28;20046;-50
2023/04/19 04:11:58;;;;;;;5.20;3.15;;;12.30;99.90;;;;;;4976824;28;20065;-50
2023/04/19 04:14:24;;;;;;;6.22;4.15;;;12.50;99.90;;;;;;4993853;28;20532;-50
2023/04/19 04:16:50;;;;;;;5.38;3.47;;;12.40;99.90;;;;;;4993711;28;20454;-50
2023/04/19 04:19:16;;;;;;;6.43;3.78;;;12.40;99.90;;;;;;4961363;28;20030;-50
2023/04/19 04:21:42;;;;;;;3.95;2.67;;;12.40;99.90;;;;;;4993909;28;20042;-50
2023/04/19 04:24:08;;;;;;;4.95;3.00;;;12.30;99.90;;;;;;5008510;28;20084;-50
2023/04/19 04:26:38;;;;;;;3.10;2.72;;;12.40;99.90;;;;;;5013174;28;20034;-50
2023/04/19 04:29:04;;;;;;;5.65;3.35;;;12.50;99.90;;;;;;5015205;28;20089;-50
2023/04/19 04:31:30;;;;;;;6.70;4.38;;;12.50;99.90;;;;;;5016067;28;20032;-50
2023/04/19 04:33:56;;;;;;;6.55;4.28;;;12.60;99.90;;;;;;4999130;28;20477;-50
2023/04/19 04:36:22;;;;;;;4.45;3.30;;;12.60;99.90;;;;;;4996910;28;20052;-50
2023/04/19 04:38:48;;;;;;;5.15;3.20;;;12.60;99.90;;;;;;4964594;28;20042;-50
2023/04/19 04:41:15;;;;;;;5.18;3.40;;;12.60;99.90;;;;;;4996595;28;20387;-50
2023/04/19 04:43:41;;;;;;;4.95;3.60;;;12.60;99.90;;;;;;5013116;28;20053;-50
2023/04/19 04:46:07;;;;;;;4.80;3.63;;;12.70;99.90;;;;;;5013277;28;20481;-50
2023/04/19 04:48:33;;;;;;;5.00;3.58;;;12.70;99.90;;;;;;5028223;28;20504;-50
2023/04/19 04:50:59;;;;;;;5.72;3.38;;;12.70;99.90;;;;;;5055397;28;20045;-50
2023/04/19 04:53:26;;;;;;;5.78;3.75;;;12.60;99.90;;;;;;5068421;28;20060;-51
2023/04/19 04:55:53;;;;;;;6.13;4.15;;;12.70;99.90;;;;;;5021261;28;20024;-50
2023/04/19 04:58:19;;;;;;;6.15;4.40;;;12.70;99.90;;;;;;5045248;28;20051;-50
2023/04/19 05:00:45;;;;;;;5.93;3.67;;;12.70;99.90;;;;;;5064897;28;20444;-51
2023/04/19 05:03:11;;;;;;;5.28;4.10;;;12.70;99.90;;;;;;5056915;28;20383;-51
2023/04/19 05:05:37;;;;;;;7.45;4.60;;;12.70;99.90;;;;;;5019130;28;20045;-51
2023/04/19 05:08:03;;;;;;;3.55;2.70;;;12.80;99.90;;;;;;5054173;28;20035;-51
2023/04/19 05:10:29;;;;;;;7.65;4.82;;;12.70;99.90;;;;;;5064010;28;20120;-51
2023/04/19 05:12:54;;;;;;;8.32;4.95;;;12.60;99.90;;;;;;5074299;28;20024;-51
2023/04/19 05:15:20;;;;;;;9.35;4.82;;;12.60;99.90;;;;;;5074638;28;20427;-48
2023/04/19 05:17:46;;;;;;;3.80;2.83;;;12.50;99.90;;;;;;5073900;28;20364;-48
2023/04/19 05:20:12;;;;;;;5.72;4.30;;;12.60;99.90;;;;;;5038453;28;20083;-48
2023/04/19 05:22:38;;;;;;;12.18;6.80;;;12.60;99.90;;;;;;5060565;28;20060;-52
2023/04/19 05:25:05;;;;;;;11.93;7.30;;;12.60;99.90;;;;;;5035471;28;20063;-52
2023/04/19 05:27:31;;;;;;;8.73;6.43;;;12.60;99.90;;;;;;5018848;28;20029;-51
2023/04/19 05:29:56;;;;;;;5.38;4.07;;;12.60;99.90;;;;;;5035450;28;20086;-51
2023/04/19 05:32:22;;;;;;;6.68;3.92;;;12.60;99.90;;;;;;5054134;28;20025;-51
2023/04/19 05:34:48;;;;;;;6.13;4.15;;;12.70;99.90;;;;;;5053938;28;20032;-51
2023/04/19 05:37:13;;;;;;;4.13;1.85;;;12.70;99.90;;;;;;5054066;28;20029;-51
2023/04/19 05:39:39;;;;;;;3.88;3.13;;;12.70;99.90;;;;;;5002147;28;20570;-51
2023/04/19 05:42:05;;;;;;;4.45;2.58;;;12.70;99.90;;;;;;5019043;28;20041;-51
2023/04/19 05:44:30;;;;;;;5.53;3.33;;;12.60;99.90;;;;;;5053735;28;20522;-51
2023/04/19 05:46:56;;;;;;;5.80;2.40;;;12.80;99.90;;;;;;5035175;28;20041;-51
2023/04/19 05:49:22;;;;;;;6.40;3.05;;;12.80;99.90;;;;;;5053607;28;20045;-52
2023/04/19 05:51:48;;;;;;;3.55;2.45;;;12.90;99.90;;;;;;5053663;28;20108;-51
2023/04/19 05:54:15;;;;;;;3.30;3.00;;;13.00;99.90;;;;;;5054032;28;20028;-51
2023/04/19 05:56:41;;;;;;;3.53;2.60;;;13.00;99.90;;;;;;5053556;28;20120;-51
2023/04/19 05:59:07;;;;;;;3.78;2.67;;;13.10;99.90;;;;;;5053988;28;20112;-51
2023/04/19 06:01:34;;;;;;;4.13;2.72;;;13.30;99.90;;;;;;5053739;28;20456;-51
2023/04/19 06:03:59;;;;;;;3.70;2.58;;;13.40;99.90;;;;;;5053609;28;20435;-51
2023/04/19 06:06:26;;;;;;;4.25;2.80;;;13.40;99.90;;;;;;5053730;28;20064;-51
2023/04/19 06:08:52;;;;;;;3.58;3.17;;;13.50;99.90;;;;;;5053769;28;20060;-51
2023/04/19 06:11:18;;;;;;;2.63;2.15;;;13.60;99.90;;;;;;5053545;28;20032;-51
2023/04/19 06:13:43;;;;;;;3.90;2.45;;;13.60;99.90;;;;;;5053159;28;20021;-51
2023/04/19 06:16:09;;;;;;;3.78;2.97;;;13.70;99.90;;;;;;5053231;28;20483;-51
2023/04/19 06:18:35;;;;;;;3.70;2.75;;;13.70;99.90;;;;;;5052981;28;20024;-51
2023/04/19 06:21:01;;;;;;;4.30;2.80;;;13.80;99.90;;;;;;5053455;28;20095;-51
2023/04/19 06:23:27;;;;;;;3.33;2.72;;;;;;;;;;5053087;28;20033;-51
2023/04/19 06:25:53;;;;;;;3.67;2.45;;;;;;;;;;5053309;28;20025;-51
2023/04/19 06:28:19;;;;;;;3.08;2.10;;;;;;;;;;5018526;28;20039;-51
2023/04/19 06:30:45;;;;;;;2.25;1.85;;;13.80;99.90;;;;;;5034389;28;20124;-51
2023/04/19 06:33:11;;;;;;;3.42;2.17;;;13.70;99.90;;;;;;5018264;28;20443;-51
2023/04/19 06:35:37;;;;;;;2.05;1.45;;;13.80;99.90;;;;;;5056739;28;20461;-51
2023/04/19 06:38:03;;;;;;;5.20;1.98;;;13.90;99.90;;;;;;5057259;28;20029;-51
2023/04/19 06:40:28;;;;;;;1.83;1.42;;;13.90;99.90;;;;;;5022269;28;20041;-51
2023/04/19 06:42:54;;;;;;;3.30;2.22;;;13.80;99.90;;;;;;5057162;28;20029;-51
2023/04/19 06:45:20;;;;;;;2.28;1.48;;;13.90;99.90;;;;;;5057274;28;20507;-51
2023/04/19 06:47:46;;;;;;;3.40;1.75;;;13.90;99.90;;;;;;5057170;28;20380;-51
2023/04/19 06:50:12;;;;;;;2.30;1.15;;;13.80;99.90;;;;;;5057178;28;20063;-51
2023/04/19 06:52:38;;;;;;;1.80;1.40;;;13.80;99.90;;;;;;5056973;28;20036;-51
2023/04/19 06:55:08;;;;;;;7.18;2.00;;;13.90;99.90;;;;;;5056907;28;20040;-51
2023/04/19 06:57:33;;;;;;;2.78;2.30;;;13.90;99.90;;;;;;5028547;28;20032;-51
2023/04/19 06:59:59;;;;;;;3.10;1.60;;;14.10;99.90;;;;;;5038954;28;20391;-51
2023/04/19 07:02:25;;;;;;;6.63;3.25;;;14.00;99.90;;;;;;5067180;28;20472;-51
2023/04/19 07:04:51;;;;;;;4.15;2.30;;;14.00;99.90;;;;;;5022007;28;20454;-50
2023/04/19 07:07:17;;;;;;;4.07;2.20;;;14.00;99.90;;;;;;5038207;28;20043;-51
2023/04/19 07:09:42;;;;;;;7.80;3.45;;;14.20;99.90;;;;;;5064861;28;20079;-51
2023/04/19 07:12:08;;;;;;;3.00;1.83;;;14.20;99.90;;;;;;5066945;28;20063;-50
2023/04/19 07:14:34;;;;;;;5.07;1.83;;;14.30;99.90;;;;;;5066774;28;20021;-48
2023/04/19 07:17:00;;;;;;;6.00;2.47;;;14.40;99.90;;;;;;5013824;28;20534;-50
2023/04/19 07:19:27;;;;;;;4.68;2.22;;;;;;;;;;5012566;28;20383;-47
2023/04/19 07:21:53;;;;;;;2.63;2.25;;;15.10;99.90;;;;;;5065249;28;20064;-50
2023/04/19 07:24:19;;;;;;;3.30;2.08;;;15.10;99.90;;;;;;5015108;28;20519;-50
2023/04/19 07:26:45;;;;;;;1.70;1.33;;;;;;;;;;5013802;28;20043;-52
2023/04/19 07:29:11;;;;;;;1.55;1.45;;;;;;;;;;5075923;28;20116;-52
2023/04/19 07:31:37;;;;;;;0.93;0.85;;;;;;;;;;5075616;28;20059;-50
2023/04/19 07:34:03;;;;;;;1.70;1.20;;;;;;;;;;5075300;28;20043;-49
2023/04/19 07:36:30;;;;;;;1.77;1.38;;;;;;;;;;5065252;28;20056;-49
2023/04/19 07:38:56;;;;;;;2.45;1.30;;;;;;;;;;5047665;28;20473;-49
2023/04/19 07:41:22;;;;;;;3.65;1.25;;;15.60;99.90;;;;;;5064703;28;20037;-50
2023/04/19 07:43:48;;;;;;;3.22;1.52;;;15.40;99.90;;;;;;5030255;28;20089;-51
2023/04/19 07:46:17;;;;;;;1.73;1.08;;;15.60;99.90;;;;;;5013391;28;20090;-51
2023/04/19 07:48:43;;;;;;;3.03;1.70;;;15.80;99.90;;;;;;5072879;28;20363;-48
2023/04/19 07:51:10;;;;;;;1.70;1.20;;;15.70;99.90;;;;;;5066764;28;20061;-53
2023/04/19 07:53:37;;;;;;;1.98;1.42;;;15.60;99.90;;;;;;5045451;28;20051;-51
2023/04/19 07:56:03;;;;;;;2.60;1.85;;;15.60;99.90;;;;;;5066113;28;20360;-51
2023/04/19 07:58:29;;;;;;;1.98;1.42;;;15.50;99.90;;;;;;5005111;28;20036;-57
2023/04/19 08:00:54;;;;;;;2.75;1.70;;;15.60;99.90;;;;;;5066910;28;20396;-49
2023/04/19 08:03:20;;;;;;;2.78;1.45;;;15.70;99.90;;;;;;5056701;28;20089;-50
2023/04/19 08:05:46;;;;;;;1.60;1.50;;;15.50;99.90;;;;;;5074742;28;20043;-49
2023/04/19 08:08:12;;;;;;;2.00;1.42;;;15.40;99.90;;;;;;5075447;28;20452;-49
2023/04/19 08:10:37;;;;;;;1.55;1.30;;;15.60;99.90;;;;;;5075590;28;20028;-49
2023/04/19 08:13:03;;;;;;;1.60;1.38;;;15.80;99.90;;;;;;5075736;28;20112;-50
2023/04/19 08:15:29;;;;;;;1.92;1.20;;;15.60;99.90;;;;;;5056836;28;20487;-49
2023/04/19 08:17:55;;;;;;;2.47;1.73;;;15.90;99.90;;;;;;5056813;28;20041;-49
2023/04/19 08:20:21;;;;;;;2.63;2.00;;;16.10;99.90;;;;;;5075320;28;20497;-49
2023/04/19 08:22:47;;;;;;;3.78;2.00;;;;;;;;;;5023500;28;20112;-49
2023/04/19 08:25:13;;;;;;;2.08;0.90;;;16.70;99.90;;;;;;5075349;28;20624;-49
2023/04/19 08:27:39;;;;;;;1.85;1.10;;;16.20;99.90;;;;;;5056927;28;20036;-49
2023/04/19 08:30:06;;;;;;;2.35;1.38;;;16.20;99.90;;;;;;5075461;28;20048;-49
2023/04/19 08:32:32;;;;;;;1.40;1.30;;;16.40;99.90;;;;;;5040324;28;20048;-49
2023/04/19 08:34:59;;;;;;;2.83;1.40;;;16.40;99.90;;;;;;5075367;28;20029;-49
2023/04/19 08:37:26;;;;;;;2.47;1.95;;;16.40;99.90;;;;;;5074916;28;20032;-51
2023/04/19 08:39:51;;;;;;;2.03;1.40;;;16.70;99.90;;;;;;5075065;28;20111;-49
2023/04/19 08:42:18;;;;;;;3.75;2.10;;;16.70;99.90;;;;;;5056071;28;20595;-49
2023/04/19 08:44:46;;;;;;;2.20;1.85;;;17.20;99.90;;;;;;5074881;28;20028;-49
2023/04/19 08:47:12;;;;;;;2.13;1.75;;;17.20;99.90;;;;;;5075141;28;20036;-49
2023/04/19 08:49:44;;;;;;;2.05;1.60;;;17.40;99.90;;;;;;5074754;28;20056;-49
2023/04/19 08:52:13;;;;;;;2.40;1.30;;;;;;;;;;5074609;28;20024;-49
2023/04/19 08:54:41;;;;;;;2.17;1.55;;;;;;;;;;5055992;28;20040;-60
2023/04/19 08:57:08;;;;;;;2.15;1.33;;;;;;;;;;5074901;28;20025;-50
2023/04/19 08:59:34;;;;;;;1.95;1.55;;;;;;;;;;5074541;28;20039;-50
2023/04/19 09:02:01;;;;;;;2.28;1.70;;;;;;;;;;5074755;28;20028;-49
2023/04/19 09:04:27;;;;;;;2.72;1.65;;;;;;;;;;5074620;28;20032;-50
2023/04/19 09:06:53;;;;;;;1.85;1.48;;;17.40;99.90;;;;;;5074770;28;20029;-49
2023/04/19 09:09:24;;;;;;;2.42;1.73;;;17.30;99.90;;;;;;5073966;28;20055;-49
2023/04/19 09:11:50;;;;;;;3.22;2.30;;;17.20;99.90;;;;;;5074417;28;20029;-50
2023/04/19 09:14:18;;;;;;;3.50;1.70;;;17.20;99.90;;;;;;5074318;28;20036;-49
2023/04/19 09:16:44;;;;;;;2.58;1.77;;;16.90;99.90;;;;;;5074369;28;20028;-49
2023/04/19 09:19:15;;;;;;;2.33;1.63;;;16.70;99.90;;;;;;5074103;28;20032;-49
2023/04/19 09:21:41;;;;;;;2.25;1.73;;;;;;;;;;5055290;28;20078;-49
2023/04/19 09:24:07;;;;;;;3.67;1.67;;;16.60;99.90;;;;;;5038872;28;20040;-49
2023/04/19 09:26:34;;;;;;;3.45;2.13;;;16.50;99.90;;;;;;5074104;28;20085;-49
2023/04/19 09:29:05;;;;;;;2.90;1.77;;;16.70;99.90;;;;;;5074008;28;20025;-50
2023/04/19 09:31:36;;;;;;;3.50;2.03;;;16.70;99.90;;;;;;5074192;28;20048;-49
2023/04/19 09:34:13;;;;;;;2.13;1.52;;;16.80;99.90;;;;;;5073902;28;20032;-49
2023/04/19 09:36:39;;;;;;;2.80;1.80;;;17.00;99.90;;;;;;5068496;28;20038;-48
2023/04/19 09:39:05;;;;;;;2.08;1.48;;;17.10;99.90;;;;;;5031085;28;20532;-48
2023/04/19 09:41:36;;;;;;;4.18;2.00;;;17.30;99.90;;;;;;5062987;28;20167;-47
2023/04/19 09:44:14;;;;;;;3.53;1.33;;;16.90;99.90;;;;;;5061891;28;20037;-47
2023/04/19 09:46:45;;;;;;;3.13;2.00;;;17.10;99.90;;;;;;5063882;28;20040;-48
2023/04/19 09:49:15;;;;;;;1.98;1.65;;;17.20;99.90;;;;;;5028691;28;20041;-47
2023/04/19 09:51:46;;;;;;;4.88;1.55;;;17.60;99.90;;;;;;5048408;28;20025;-48
2023/04/19 09:54:13;;;;;;;2.15;1.63;;;18.00;99.90;;;;;;5062499;28;20021;-48
2023/04/19 09:56:39;;;;;;;1.92;1.52;;;18.40;99.90;;;;;;5063823;28;20494;-49
2023/04/19 09:59:08;;;;;;;3.17;1.83;;;18.60;99.90;;;;;;5062229;28;20092;-49
2023/04/19 10:01:52;;;;;;;2.90;1.75;;;18.90;99.90;;;;;;5061695;28;20040;-48
2023/04/19 10:04:20;;;;;;;2.65;1.58;;;;;;;;;;5063822;28;20029;-47
2023/04/19 10:06:51;;;;;;;1.90;1.27;;;20.10;99.90;;;;;;5065472;28;20112;-47
2023/04/19 10:09:27;;;;;;;3.28;1.70;;;20.40;99.90;;;;;;5072943;28;20052;-49
2023/04/19 10:11:53;;;;;;;3.10;1.50;;;;;;;;;;5053340;28;20028;-47
2023/04/19 10:14:26;;;;;;;2.47;1.60;;;20.30;99.90;;;;;;5068823;28;20098;-49
2023/04/19 10:16:52;;;;;;;3.53;1.80;;;20.00;99.90;;;;;;5005402;28;20476;-47
2023/04/19 10:19:20;;;;;;;2.10;1.58;;;19.70;99.90;;;;;;5052983;28;20082;-47
2023/04/19 10:21:47;;;;;;;2.08;1.27;;;;;;;;;;5067190;28;20037;-47
2023/04/19 10:24:14;;;;;;;2.47;1.80;;;;;;;;;;5056195;28;20455;-48
2023/04/19 10:27:04;;;;;;;2.22;1.55;;;19.10;99.90;;;;;;5021617;28;20040;-49
2023/04/19 10:29:55;;;;;;;2.38;1.67;;;19.00;99.90;;;;;;5072920;28;20029;-50
2023/04/19 10:32:23;;;;;;;1.35;1.23;;;18.60;99.90;;;;;;5073259;28;20478;-49
2023/04/19 10:34:54;;;;;;;1.17;1.08;;;18.80;99.90;;;;;;5073080;28;20031;-49
2023/04/19 10:37:25;;;;;;;3.67;1.48;;;19.10;99.90;;;;;;5073533;28;20029;-49
2023/04/19 10:39:51;;;;;;;2.35;1.65;;;18.80;99.90;;;;;;5072901;28;20028;-49
2023/04/19 10:42:17;;;;;;;2.88;1.50;;;18.90;99.90;;;;;;5073120;28;20033;-49
2023/04/19 10:45:21;;;;;;;2.15;1.35;;;19.10;99.90;;;;;;5073044;28;20025;-49
2023/04/19 10:47:47;;;;;;;8.35;1.70;;;18.80;99.90;;;;;;5072705;28;20039;-49
2023/04/19 10:50:16;;;;;;;2.42;1.90;;;18.80;99.90;;;;;;5072680;28;20049;-49
2023/04/19 10:52:42;;;;;;;1.30;1.20;;;18.80;99.90;;;;;;5073182;28;20031;-50
2023/04/19 10:55:08;;;;;;;2.28;1.35;;;18.90;99.90;;;;;;5037729;28;20040;-49
2023/04/19 10:57:53;;;;;;;1.83;1.30;;;;;;;;;;5037445;28;20043;-48
2023/04/19 11:00:24;;;;;;;2.05;1.15;;;;;;;;;;5021098;28;20484;-49
2023/04/19 11:02:50;;;;;;;2.67;1.67;;;;;;;;;;5072991;28;20386;-49
2023/04/19 11:05:16;;;;;;;1.48;1.30;;;;;;;;;;5021091;28;20052;-50
2023/04/19 11:07:42;;;;;;;2.38;1.40;;;20.50;99.90;;;;;;5072559;28;20029;-49
2023/04/19 11:10:09;;;;;;;2.40;1.98;;;20.20;99.90;;;;;;5072155;28;20055;-49
2023/04/19 11:12:35;;;;;;;1.63;1.33;;;;;;;;;;5036881;28;20033;-48
2023/04/19 11:15:02;;;;;;;3.03;1.60;;;;;;;;;;5072739;28;20509;-48
2023/04/19 11:17:30;;;;;;;1.05;0.80;;;;;;;;;;5072707;28;20036;-49
2023/04/19 11:20:08;;;;;;;2.22;1.73;;;18.70;99.90;;;;;;5072339;28;20058;-49
2023/04/19 11:22:41;;;;;;;1.50;1.25;;;;;;;;;;5007648;28;20080;-50
2023/04/19 11:25:12;;;;;;;2.85;1.75;;;;;;;;;;5058389;28;20537;-49
2023/04/19 11:27:39;;;;;;;3.65;2.70;;;;;;;;;;5076684;28;20032;-49
2023/04/19 11:30:05;;;;;;;1.58;1.38;;;;;;;;;;5069781;28;20100;-50
2023/04/19 11:32:32;;;;;;;2.22;1.75;;;18.20;99.90;;;;;;5065386;28;20094;-50
2023/04/19 11:35:04;;;;;;;2.75;2.00;;;18.20;99.90;;;;;;5062257;28;20032;-52
2023/04/19 11:37:37;;;;;;;1.52;1.30;;;18.50;99.90;;;;;;5060586;28;20025;-51
2023/04/19 11:40:04;;;;;;;2.70;1.63;;;;;;;;;;5060583;28;20029;-50
2023/04/19 11:42:29;;;;;;;1.60;1.40;;;19.50;99.90;;;;;;5060446;28;20503;-50
2023/04/19 11:44:57;;;;;;;1.55;1.23;;;19.60;99.90;;;;;;5043804;28;20056;-53
2023/04/19 11:47:23;;;;;;;1.85;1.58;;;19.40;99.90;;;;;;5067639;28;20422;-56
2023/04/19 11:49:49;;;;;;;2.15;1.80;;;;;;;;;;5065895;28;20094;-54
2023/04/19 11:52:23;;;;;;;1.67;1.48;;;;;;;;;;5067780;28;20021;-52
2023/04/19 11:54:49;;;;;;;1.55;0.73;;;;;;;;;;5068035;28;20064;-52
2023/04/19 11:57:26;;;;;;;1.88;1.13;;;;;;;;;;5067859;28;20353;-56
2023/04/19 12:00:03;;;;;;;2.28;1.33;;;;;;;;;;5066372;28;20096;-51
2023/04/19 12:02:30;;;;;;;1.15;1.05;;;;;;;;;;5046220;28;20086;-51
2023/04/19 12:04:56;;;;;;;1.52;1.25;;;;;;;;;;5034720;28;20040;-50
2023/04/19 12:07:22;;;;;;;1.63;1.30;;;;;;;;;;5068586;28;20036;-50
2023/04/19 12:09:48;;;;;;;2.72;1.30;;;;;;;;;;5026902;28;20820;-51
2023/04/19 12:12:31;;;;;;;2.78;1.33;;;;;;;;;;5060158;28;20028;-51
2023/04/19 12:14:58;;;;;;;3.22;1.33;;;;;;;;;;5067792;28;20441;-51
2023/04/19 12:17:24;;;;;;;1.30;0.90;;;;;;;;;;5041842;28;20110;-51
2023/04/19 12:19:51;;;;;;;3.08;1.70;;;;;;;;;;5063079;28;20103;-54
2023/04/19 12:22:23;;;;;;;2.38;1.80;;;;;;;;;;5065839;28;20032;-51
2023/04/19 12:24:49;;;;;;;;;;;;;;;;;;5065332;28;20029;-51
2023/04/19 12:27:17;;;;;;;1.23;1.10;;;19.20;99.90;;;;;;5028312;28;19905;-51
2023/04/19 12:29:42;;;;;;;1.30;1.00;;;19.70;99.90;;;;;;5065351;28;20349;-50
2023/04/19 12:32:10;;;;;;;1.80;1.35;;;;;;;;;;5036090;28;20041;-52
2023/04/19 12:34:35;;;;;;;1.45;1.10;;;20.20;99.90;;;;;;5065701;28;20024;-51
2023/04/19 12:37:03;;;;;;;1.52;1.00;;;19.80;99.90;;;;;;5064393;28;20071;-51
2023/04/19 12:39:29;;;;;;;3.58;1.45;;;19.50;99.90;;;;;;5063905;28;20566;-51
2023/04/19 12:41:55;;;;;;;2.40;1.50;;;19.00;99.90;;;;;;5065094;28;20028;-51
2023/04/19 12:44:22;;;;;;;0.82;0.73;;;;;;;;;;5063542;28;20021;-51
2023/04/19 12:46:48;;;;;;;0.65;0.65;;;17.80;99.90;;;;;;5064280;28;20027;-51
2023/04/19 12:49:16;;;;;;;1.13;1.02;;;17.60;99.90;;;;;;5031840;28;20053;-51
2023/04/19 12:51:42;;;;;;;1.95;1.45;;;17.80;99.90;;;;;;5043638;28;20036;-51
2023/04/19 12:54:07;;;;;;;1.52;1.42;;;17.50;99.90;;;;;;5034948;28;20539;-50
2023/04/19 12:56:34;;;;;;;2.83;1.33;;;;;;;;;;5032773;28;20048;-50
2023/04/19 12:59:00;;;;;;;2.55;1.67;;;;;;;;;;5043173;28;20029;-49
2023/04/19 13:01:26;;;;;;;1.00;0.88;;;17.00;99.90;;;;;;5037140;28;20484;-51
2023/04/19 13:03:52;;;;;;;2.40;1.42;;;;;;;;;;5032817;28;20042;-49
2023/04/19 13:06:18;;;;;;;0.60;0.55;;;16.80;99.90;;;;;;5051507;28;20036;-50
2023/04/19 13:08:43;;;;;;;3.90;1.83;;;16.60;99.90;;;;;;5052376;28;20171;-50